createdAt,value
2018-12-12T00:01:55.629Z,99525.52
2018-12-12T00:04:21.797Z,99526.33
2018-12-12T00:06:48.415Z,99527.98
2018-12-12T00:09:14.554Z,99516.30
2018-12-12T00:11:40.692Z,99518.93
2018-12-12T00:14:06.864Z,99516.97
2018-12-12T00:16:33.015Z,99518.48
2018-12-12T00:18:59.365Z,99520.00
2018-12-12T00:21:25.528Z,99525.02
2018-12-12T00:23:51.665Z,99525.00
2018-12-12T00:26:17.789Z,99535.87
2018-12-12T00:28:44.010Z,99538.67
2018-12-12T00:31:10.177Z,99538.53
2018-12-12T00:33:36.338Z,99545.16
2018-12-12T00:36:02.553Z,99543.00
2018-12-12T00:38:28.697Z,99541.13
2018-12-12T00:40:54.834Z,99547.39
2018-12-12T00:43:21.129Z,99544.34
2018-12-12T00:45:47.274Z,99547.31
2018-12-12T00:48:13.416Z,99546.98
2018-12-12T00:50:39.625Z,99540.22
2018-12-12T00:53:05.801Z,99540.41
2018-12-12T00:55:31.940Z,99543.18
2018-12-12T00:57:58.244Z,99543.01
2018-12-12T01:00:24.382Z,99538.17
2018-12-12T01:02:57.441Z,99536.95
2018-12-12T01:05:23.608Z,99531.78
2018-12-12T01:07:49.749Z,99545.84
2018-12-12T01:10:15.902Z,99537.94
2018-12-12T01:12:42.081Z,99533.34
2018-12-12T01:15:08.237Z,99530.72
2018-12-12T01:17:34.400Z,99529.13
2018-12-12T01:20:00.589Z,99533.42
2018-12-12T01:22:26.727Z,99539.11
2018-12-12T01:24:52.869Z,99537.08
2018-12-12T01:27:19.025Z,99541.40
2018-12-12T01:29:45.216Z,99543.28
2018-12-12T01:32:11.466Z,99536.52
2018-12-12T01:34:37.720Z,99547.33
2018-12-12T01:37:04.313Z,99547.17
2018-12-12T01:39:30.482Z,99535.78
2018-12-12T01:41:56.667Z,99538.38
2018-12-12T01:44:23.106Z,99541.84
2018-12-12T01:46:49.310Z,99542.63
2018-12-12T01:49:15.669Z,99541.13
2018-12-12T01:51:41.930Z,99547.72
2018-12-12T01:54:08.141Z,99547.25
2018-12-12T01:56:34.317Z,99546.49
2018-12-12T01:59:00.442Z,99551.97
2018-12-12T02:01:26.572Z,99549.78
2018-12-12T02:03:53.242Z,99544.80
2018-12-12T02:06:19.501Z,99550.71
2018-12-12T02:08:46.309Z,99554.00
2018-12-12T02:11:12.721Z,99550.97
2018-12-12T02:13:38.876Z,99547.77
2018-12-12T02:16:06.813Z,99553.56
2018-12-12T02:18:33.301Z,99556.30
2018-12-12T02:20:59.941Z,99557.22
2018-12-12T02:23:26.136Z,99550.61
2018-12-12T02:25:52.305Z,99544.23
2018-12-12T02:28:18.590Z,99548.69
2018-12-12T02:30:44.742Z,99540.56
2018-12-12T02:33:11.047Z,99549.48
2018-12-12T02:35:37.190Z,99554.32
2018-12-12T02:38:03.535Z,99554.25
2018-12-12T02:40:30.137Z,99554.97
2018-12-12T02:42:56.282Z,99559.78
2018-12-12T02:45:22.460Z,99554.72
2018-12-12T02:47:48.624Z,99551.75
2018-12-12T02:50:14.846Z,99562.97
2018-12-12T02:52:41.075Z,99561.66
2018-12-12T02:55:07.332Z,99554.25
2018-12-12T02:57:33.465Z,99562.90
2018-12-12T02:59:59.792Z,99567.06
2018-12-12T03:02:26.643Z,99555.19
2018-12-12T03:04:52.778Z,99554.09
2018-12-12T03:07:18.932Z,99555.97
2018-12-12T03:09:45.096Z,99555.55
2018-12-12T03:12:11.259Z,99556.72
2018-12-12T03:14:37.428Z,99549.22
2018-12-12T03:17:03.791Z,99555.72
2018-12-12T03:19:30.162Z,99553.53
2018-12-12T03:21:56.453Z,99549.92
2018-12-12T03:24:22.633Z,99550.77
2018-12-12T03:26:48.761Z,99552.30
2018-12-12T03:29:14.945Z,99547.52
2018-12-12T03:31:41.136Z,99544.41
2018-12-12T03:34:07.336Z,99546.94
2018-12-12T03:36:33.615Z,99550.06
2018-12-12T03:38:59.780Z,99558.19
2018-12-12T03:41:26.048Z,99562.67
2018-12-12T03:43:52.191Z,99562.09
2018-12-12T03:46:18.560Z,99566.21
2018-12-12T03:48:44.755Z,99563.64
2018-12-12T03:51:10.890Z,99567.68
2018-12-12T03:53:37.177Z,99574.34
2018-12-12T03:56:03.439Z,99573.09
2018-12-12T03:58:29.594Z,99572.30
2018-12-12T04:01:02.837Z,99575.14
2018-12-12T04:03:29.050Z,99574.75
2018-12-12T04:05:55.278Z,99581.81
2018-12-12T04:08:21.542Z,99574.84
2018-12-12T04:10:47.945Z,99584.34
2018-12-12T04:13:14.089Z,99587.05
2018-12-12T04:15:40.631Z,99583.46
2018-12-12T04:18:06.859Z,99587.98
2018-12-12T04:20:33.004Z,99590.25
2018-12-12T04:22:59.211Z,99583.52
2018-12-12T04:25:25.354Z,99586.43
2018-12-12T04:27:51.534Z,99589.55
2018-12-12T04:30:17.792Z,99592.80
2018-12-12T04:32:43.925Z,99585.48
2018-12-12T04:35:10.064Z,99584.07
2018-12-12T04:37:36.234Z,99583.27
2018-12-12T04:40:04.045Z,99577.47
2018-12-12T04:42:30.193Z,99573.05
2018-12-12T04:44:56.564Z,99579.51
2018-12-12T04:47:22.820Z,99577.05
2018-12-12T04:49:49.108Z,99580.36
2018-12-12T04:52:15.257Z,99586.45
2018-12-12T04:54:41.503Z,99594.56
2018-12-12T04:57:07.698Z,99594.61
2018-12-12T04:59:33.929Z,99597.77
2018-12-12T05:02:00.078Z,99601.53
2018-12-12T05:04:26.397Z,99605.83
2018-12-12T05:06:52.593Z,99607.97
2018-12-12T05:09:18.749Z,99603.00
2018-12-12T05:11:44.902Z,99608.97
2018-12-12T05:14:11.105Z,99608.82
2018-12-12T05:16:37.351Z,99614.43
2018-12-12T05:19:03.519Z,99614.64
2018-12-12T05:21:29.803Z,99615.81
2018-12-12T05:23:56.072Z,99622.17
2018-12-12T05:26:22.260Z,99621.94
2018-12-12T05:28:48.657Z,99624.56
2018-12-12T05:31:14.896Z,99641.39
2018-12-12T05:33:41.113Z,99636.83
2018-12-12T05:36:07.375Z,99639.17
2018-12-12T05:38:33.537Z,99643.78
2018-12-12T05:40:59.701Z,99648.09
2018-12-12T05:43:26.057Z,99654.94
2018-12-12T05:45:52.715Z,99657.71
2018-12-12T05:48:18.906Z,99658.08
2018-12-12T05:50:45.145Z,99665.77
2018-12-12T05:53:11.301Z,99664.27
2018-12-12T05:55:37.449Z,99668.88
2018-12-12T05:58:03.835Z,99669.46
2018-12-12T06:00:30.029Z,99673.84
2018-12-12T06:02:56.259Z,99677.38
2018-12-12T06:05:22.517Z,99681.73
2018-12-12T06:07:48.645Z,99688.60
2018-12-12T06:10:14.977Z,99684.53
2018-12-12T06:12:41.201Z,99688.09
2018-12-12T06:15:07.634Z,99689.36
2018-12-12T06:17:40.772Z,99691.45
2018-12-12T06:20:07.918Z,99686.31
2018-12-12T06:22:37.653Z,99692.29
2018-12-12T06:25:03.090Z,99702.22
2018-12-12T06:27:29.422Z,99705.55
2018-12-12T06:29:55.617Z,99704.93
2018-12-12T06:32:21.828Z,99705.73
2018-12-12T06:34:47.958Z,99711.78
2018-12-12T06:37:14.112Z,99707.56
2018-12-12T06:39:40.361Z,99713.09
2018-12-12T06:42:06.567Z,99712.00
2018-12-12T06:44:32.812Z,99714.79
2018-12-12T06:46:59.094Z,99710.34
2018-12-12T06:49:25.461Z,99719.48
2018-12-12T06:51:51.617Z,99721.45
2018-12-12T06:54:17.928Z,99721.45
2018-12-12T06:56:44.077Z,99726.41
2018-12-12T06:59:10.215Z,99726.63
2018-12-12T07:01:36.835Z,99734.67
2018-12-12T07:04:03.028Z,99741.97
2018-12-12T07:06:29.271Z,99741.63
2018-12-12T07:08:55.703Z,99738.43
2018-12-12T07:11:21.848Z,99731.08
2018-12-12T07:13:48.125Z,99741.45
2018-12-12T07:16:14.387Z,99734.28
2018-12-12T07:18:40.597Z,99734.55
2018-12-12T07:21:06.720Z,99741.62
2018-12-12T07:23:33.070Z,99736.65
2018-12-12T07:25:59.298Z,99739.95
2018-12-12T07:28:25.495Z,99747.24
2018-12-12T07:30:51.753Z,99747.38
2018-12-12T07:33:17.897Z,99750.69
2018-12-12T07:35:44.043Z,99750.66
2018-12-12T07:38:10.439Z,99754.33
2018-12-12T07:40:36.647Z,99765.03
2018-12-12T07:43:02.792Z,99765.39
2018-12-12T07:45:28.964Z,99767.10
2018-12-12T07:48:01.273Z,99775.92
2018-12-12T07:50:23.509Z,99779.50
2018-12-12T07:52:49.817Z,99785.47
2018-12-12T07:55:16.078Z,99787.72
2018-12-12T07:57:42.273Z,99790.39
2018-12-12T08:00:08.755Z,99792.89
2018-12-12T08:02:35.156Z,99798.69
2018-12-12T08:05:01.357Z,99801.13
2018-12-12T08:10:04.876Z,99809.39
2018-12-12T08:12:31.097Z,99818.66
2018-12-12T08:14:57.217Z,99815.07
2018-12-12T08:17:23.349Z,99816.41
2018-12-12T08:19:49.497Z,99818.13
2018-12-12T08:22:15.849Z,99818.84
2018-12-12T08:24:42.078Z,99821.43
2018-12-12T08:27:08.271Z,99822.84
2018-12-12T08:29:34.407Z,99816.90
2018-12-12T08:32:00.725Z,99821.59
2018-12-12T08:34:26.987Z,99817.67
2018-12-12T08:36:53.215Z,99821.29
2018-12-12T08:39:19.443Z,99815.53
2018-12-12T08:41:45.622Z,99821.29
2018-12-12T08:44:11.864Z,99816.70
2018-12-12T08:46:38.005Z,99815.33
2018-12-12T08:49:04.205Z,99816.41
2018-12-12T08:51:30.549Z,99813.19
2018-12-12T08:53:56.809Z,99814.67
2018-12-12T08:56:23.038Z,99818.91
2018-12-12T08:58:49.177Z,99810.91
2018-12-12T09:01:15.498Z,99820.05
2018-12-12T09:03:41.679Z,99811.60
2018-12-12T09:06:07.948Z,99798.23
2018-12-12T09:08:34.162Z,99800.31
2018-12-12T09:11:00.388Z,99800.48
2018-12-12T09:13:26.554Z,99794.66
2018-12-12T09:15:52.725Z,99792.50
2018-12-12T09:18:19.071Z,99795.91
2018-12-12T09:20:45.315Z,99793.01
2018-12-12T09:23:11.508Z,99789.52
2018-12-12T09:25:37.771Z,99783.86
2018-12-12T09:28:04.000Z,99788.25
2018-12-12T09:30:30.401Z,99784.75
2018-12-12T09:32:56.872Z,99781.13
2018-12-12T09:35:23.268Z,99774.44
2018-12-12T09:37:49.406Z,99764.77
2018-12-12T09:40:15.617Z,99770.84
2018-12-12T09:42:41.774Z,99774.02
2018-12-12T09:45:08.042Z,99765.56
2018-12-12T09:47:34.434Z,99760.25
2018-12-12T09:50:00.646Z,99769.64
2018-12-12T09:52:26.799Z,99762.63
2018-12-12T09:54:52.973Z,99765.31
2018-12-12T09:57:19.313Z,99756.58
2018-12-12T09:59:45.508Z,99761.38
2018-12-12T10:02:11.783Z,99752.13
2018-12-12T10:04:38.030Z,99747.45
2018-12-12T10:07:04.257Z,99754.36
2018-12-12T10:09:30.487Z,99749.20
2018-12-12T10:11:56.644Z,99757.61
2018-12-12T10:14:22.837Z,99748.39
2018-12-12T10:16:49.137Z,99753.27
2018-12-12T10:19:15.779Z,99755.09
2018-12-12T10:21:41.940Z,99742.19
2018-12-12T10:24:08.129Z,99744.51
2018-12-12T10:26:34.660Z,99736.05
2018-12-12T10:29:01.062Z,99745.53
2018-12-12T10:31:27.397Z,99741.01
2018-12-12T10:33:53.537Z,99734.01
2018-12-12T10:36:19.787Z,99730.91
2018-12-12T10:38:46.036Z,99732.63
2018-12-12T10:41:12.193Z,99734.17
2018-12-12T10:43:38.350Z,99738.77
2018-12-12T10:46:04.690Z,99745.89
2018-12-12T10:48:30.960Z,99739.02
2018-12-12T10:50:57.382Z,99734.25
2018-12-12T10:53:23.782Z,99726.17
2018-12-12T10:58:26.188Z,99740.00
2018-12-12T11:00:58.461Z,99736.50
2018-12-12T11:03:30.758Z,99735.81
2018-12-12T11:05:57.029Z,99734.32
2018-12-12T11:08:23.215Z,99730.30
2018-12-12T11:10:49.667Z,99725.84
2018-12-12T11:13:15.822Z,99734.43
2018-12-12T11:15:41.966Z,99726.33
2018-12-12T11:18:08.142Z,99723.15
2018-12-12T11:20:34.358Z,99712.70
2018-12-12T11:23:00.517Z,99719.09
2018-12-12T11:25:26.675Z,99736.20
2018-12-12T11:27:52.818Z,99723.06
2018-12-12T11:30:18.994Z,99735.91
2018-12-12T11:32:45.204Z,99740.53
2018-12-12T11:35:11.329Z,99739.66
2018-12-12T11:37:37.473Z,99736.67
2018-12-12T11:40:04.793Z,99734.45
2018-12-12T11:42:30.926Z,99735.48
2018-12-12T11:44:57.069Z,99728.78
2018-12-12T11:47:23.241Z,99732.14
2018-12-12T11:49:49.554Z,99729.69
2018-12-12T11:52:15.681Z,99740.18
2018-12-12T11:54:41.861Z,99733.05
2018-12-12T11:57:08.673Z,99738.09
2018-12-12T11:59:34.901Z,99738.17
2018-12-12T12:02:01.170Z,99730.28
2018-12-12T12:04:27.309Z,99730.56
2018-12-12T12:06:53.448Z,99731.40
2018-12-12T12:09:19.666Z,99730.67
2018-12-12T12:11:45.806Z,99726.31
2018-12-12T12:14:11.925Z,99729.61
2018-12-12T12:16:38.095Z,99735.14
2018-12-12T12:19:04.240Z,99731.93
2018-12-12T12:21:30.382Z,99730.78
2018-12-12T12:24:03.541Z,99733.52
2018-12-12T12:26:29.929Z,99727.55
2018-12-12T12:28:56.413Z,99725.18
2018-12-12T12:31:23.982Z,99731.06
2018-12-12T12:33:50.267Z,99735.86
2018-12-12T12:36:16.424Z,99737.29
2018-12-12T12:38:42.589Z,99734.41
2018-12-12T12:41:08.713Z,99741.87
2018-12-12T12:43:34.862Z,99738.65
2018-12-12T12:46:01.036Z,99739.54
2018-12-12T12:48:27.190Z,99735.36
2018-12-12T12:50:53.355Z,99741.34
2018-12-12T12:53:19.525Z,99735.80
2018-12-12T12:55:45.664Z,99746.45
2018-12-12T12:58:11.830Z,99745.91
2018-12-12T13:00:38.005Z,99745.56
2018-12-12T13:03:04.184Z,99748.91
2018-12-12T13:05:30.337Z,99751.14
2018-12-12T13:07:56.486Z,99751.22
2018-12-12T13:10:22.931Z,99754.97
2018-12-12T13:12:49.327Z,99762.00
2018-12-12T13:15:15.745Z,99750.95
2018-12-12T13:17:41.896Z,99750.42
2018-12-12T13:20:08.066Z,99761.08
2018-12-12T13:22:34.245Z,99758.44
2018-12-12T13:25:00.392Z,99759.01
2018-12-12T13:27:26.534Z,99761.56
2018-12-12T13:29:52.722Z,99762.50
2018-12-12T13:32:18.862Z,99763.86
2018-12-12T13:34:45.019Z,99765.59
2018-12-12T13:37:11.194Z,99764.20
2018-12-12T13:39:37.321Z,99771.91
2018-12-12T13:42:03.464Z,99774.84
2018-12-12T13:44:29.666Z,99778.17
2018-12-12T13:46:55.793Z,99776.14
2018-12-12T13:49:21.913Z,99780.70
2018-12-12T13:51:48.066Z,99779.27
2018-12-12T13:54:14.197Z,99786.63
2018-12-12T13:56:40.330Z,99779.55
2018-12-12T13:59:06.530Z,99781.34
2018-12-12T14:01:32.677Z,99784.18
2018-12-12T14:03:58.812Z,99783.62
2018-12-12T14:06:25.001Z,99778.84
2018-12-12T14:08:51.139Z,99787.53
2018-12-12T14:11:17.282Z,99780.59
2018-12-12T14:13:43.438Z,99782.63
2018-12-12T14:16:09.623Z,99781.28
2018-12-12T14:18:35.765Z,99786.19
2018-12-12T14:21:01.945Z,99791.84
2018-12-12T14:23:28.117Z,99789.87
2018-12-12T14:25:54.262Z,99797.27
2018-12-12T14:28:20.471Z,99805.48
2018-12-12T14:30:46.733Z,99805.38
2018-12-12T14:33:12.870Z,99807.66
2018-12-12T14:35:39.041Z,99811.92
2018-12-12T14:38:05.195Z,99811.20
2018-12-12T14:40:31.341Z,99808.14
2018-12-12T14:42:57.497Z,99811.56
2018-12-12T14:45:23.629Z,99803.86
2018-12-12T14:47:49.785Z,99810.03
2018-12-12T14:50:15.993Z,99809.86
2018-12-12T14:52:42.143Z,99807.55
2018-12-12T14:55:08.304Z,99807.86
2018-12-12T14:57:34.478Z,99809.70
2018-12-12T15:00:00.880Z,99809.57
2018-12-12T15:02:27.067Z,99801.84
2018-12-12T15:04:53.339Z,99801.17
2018-12-12T15:07:19.489Z,99801.48
2018-12-12T15:09:45.653Z,99805.20
2018-12-12T15:12:11.853Z,99809.70
2018-12-12T15:14:37.980Z,99813.05
2018-12-12T15:17:04.270Z,99815.44
2018-12-12T15:19:30.449Z,99809.20
2018-12-12T15:21:56.586Z,99815.58
2018-12-12T15:24:22.733Z,99816.09
2018-12-12T15:26:48.895Z,99814.42
2018-12-12T15:29:15.033Z,99811.23
2018-12-12T15:31:41.180Z,99811.73
2018-12-12T15:34:07.405Z,99815.05
2018-12-12T15:36:33.553Z,99805.53
2018-12-12T15:38:59.693Z,99811.55
2018-12-12T15:41:25.889Z,99812.73
2018-12-12T15:43:52.016Z,99810.05
2018-12-12T15:46:18.205Z,99807.36
2018-12-12T15:48:44.412Z,99812.05
2018-12-12T15:53:44.269Z,99814.39
2018-12-12T15:56:10.507Z,99807.83
2018-12-12T15:58:36.723Z,99807.82
2018-12-12T16:01:02.878Z,99807.32
2018-12-12T16:03:29.072Z,99807.82
2018-12-12T16:05:55.260Z,99808.81
2018-12-12T16:08:21.446Z,99812.23
2018-12-12T16:10:47.662Z,99810.91
2018-12-12T16:13:14.144Z,99814.39
2018-12-12T16:15:40.318Z,99812.38
2018-12-12T16:18:06.519Z,99816.95
2018-12-12T16:20:32.748Z,99810.41
2018-12-12T16:22:58.889Z,99815.91
2018-12-12T16:25:25.085Z,99811.55
2018-12-12T16:27:52.279Z,99815.58
2018-12-12T16:30:18.550Z,99817.58
2018-12-12T16:32:44.950Z,99814.19
2018-12-12T16:35:11.100Z,99817.22
2018-12-12T16:37:37.247Z,99816.42
2018-12-12T16:40:04.723Z,99812.18
2018-12-12T16:42:30.871Z,99813.56
2018-12-12T16:44:56.998Z,99817.55
2018-12-12T16:47:23.233Z,99824.53
2018-12-12T16:49:49.401Z,99833.52
2018-12-12T16:52:15.544Z,99831.59
2018-12-12T16:54:41.710Z,99838.84
2018-12-12T16:57:07.866Z,99842.20
2018-12-12T16:59:34.049Z,99853.94
2018-12-12T17:02:00.269Z,99866.50
2018-12-12T17:04:28.404Z,99886.50
2018-12-12T17:06:54.733Z,99888.38
2018-12-12T17:09:21.964Z,99895.55
2018-12-12T17:11:50.409Z,99904.53
2018-12-12T17:14:20.187Z,99905.23
2018-12-12T17:16:46.385Z,99898.70
2018-12-12T17:19:12.523Z,99896.45
2018-12-12T17:21:39.864Z,99902.09
2018-12-12T17:24:07.211Z,99902.30
2018-12-12T17:26:38.160Z,99891.12
2018-12-12T17:29:04.705Z,99888.41
2018-12-12T17:31:34.529Z,99898.28
2018-12-12T17:34:00.693Z,99900.73
2018-12-12T17:36:26.832Z,99892.72
2018-12-12T17:38:53.000Z,99893.23
2018-12-12T17:41:19.295Z,99893.81
2018-12-12T17:43:46.026Z,99891.22
2018-12-12T17:46:12.410Z,99882.87
2018-12-12T17:48:38.581Z,99880.00
2018-12-12T17:51:04.723Z,99863.95
2018-12-12T17:53:30.905Z,99883.75
2018-12-12T17:55:57.069Z,99875.73
2018-12-12T17:58:23.214Z,99880.92
2018-12-12T18:00:49.486Z,99883.48
2018-12-12T18:03:15.621Z,99880.17
2018-12-12T18:05:41.744Z,99876.66
2018-12-12T18:08:07.925Z,99880.88
2018-12-12T18:10:35.617Z,99881.53
2018-12-12T18:13:02.057Z,99885.19
2018-12-12T18:15:28.216Z,99886.61
2018-12-12T18:17:54.386Z,99876.80
2018-12-12T18:20:20.549Z,99872.28
2018-12-12T18:22:46.717Z,99875.06
2018-12-12T18:25:12.848Z,99876.81
2018-12-12T18:27:38.993Z,99879.02
2018-12-12T18:30:06.345Z,99885.61
2018-12-12T18:32:32.512Z,99893.41
2018-12-12T18:34:58.658Z,99891.83
2018-12-12T18:37:24.818Z,99899.39
2018-12-12T18:39:50.957Z,99899.06
2018-12-12T18:42:17.113Z,99897.70
2018-12-12T18:44:43.289Z,99901.48
2018-12-12T18:47:09.414Z,99907.45
2018-12-12T18:49:35.547Z,99904.63
2018-12-12T18:52:01.704Z,99904.28
2018-12-12T18:54:27.881Z,99904.80
2018-12-12T18:56:54.051Z,99904.50
2018-12-12T18:59:20.249Z,99910.89
2018-12-12T19:01:46.410Z,99912.30
2018-12-12T19:04:12.562Z,99912.16
2018-12-12T19:06:38.741Z,99910.68
2018-12-12T19:09:05.037Z,99900.89
2018-12-12T19:11:31.194Z,99904.64
2018-12-12T19:13:57.362Z,99903.23
2018-12-12T19:16:23.528Z,99899.55
2018-12-12T19:18:49.700Z,99897.61
2018-12-12T19:21:15.865Z,99901.35
2018-12-12T19:23:42.054Z,99898.89
2018-12-12T19:26:08.195Z,99894.36
2018-12-12T19:28:34.358Z,99903.47
2018-12-12T19:31:00.630Z,99902.00
2018-12-12T19:33:26.777Z,99892.75
2018-12-12T19:35:52.986Z,99901.10
2018-12-12T19:38:19.185Z,99902.45
2018-12-12T19:40:45.346Z,99902.08
2018-12-12T19:43:11.549Z,99905.30
2018-12-12T19:45:37.761Z,99900.49
2018-12-12T19:48:03.900Z,99897.14
2018-12-12T19:50:30.065Z,99906.12
2018-12-12T19:52:56.233Z,99898.92
2018-12-12T19:55:22.377Z,99898.45
2018-12-12T19:57:48.551Z,99902.42
2018-12-12T20:00:14.705Z,99904.53
2018-12-12T20:02:40.851Z,99905.44
2018-12-12T20:05:07.203Z,99902.98
2018-12-12T20:07:33.362Z,99906.69
2018-12-12T20:09:59.522Z,99907.34
2018-12-12T20:12:25.719Z,99904.05
2018-12-12T20:14:51.877Z,99908.45
2018-12-12T20:17:18.030Z,99910.86
2018-12-12T20:19:44.197Z,99912.58
2018-12-12T20:22:10.358Z,99910.98
2018-12-12T20:24:37.169Z,99911.28
2018-12-12T20:27:03.868Z,99915.67
2018-12-12T20:29:30.018Z,99915.67
2018-12-12T20:31:56.172Z,99912.23
2018-12-12T20:34:22.350Z,99908.94
2018-12-12T20:36:48.481Z,99913.43
2018-12-12T20:39:14.642Z,99915.19
2018-12-12T20:41:40.845Z,99919.97
2018-12-12T20:44:06.986Z,99913.67
2018-12-12T20:46:33.137Z,99916.70
2018-12-12T20:48:59.313Z,99924.75
2018-12-12T20:51:25.481Z,99926.52
2018-12-12T20:53:51.653Z,99928.93
2018-12-12T20:56:17.808Z,99939.80
2018-12-12T20:58:43.953Z,99931.68
2018-12-12T21:01:10.160Z,99935.52
2018-12-12T21:03:36.340Z,99936.15
2018-12-12T21:06:02.486Z,99935.57
2018-12-12T21:08:28.638Z,99939.23
2018-12-12T21:10:54.844Z,99937.14
2018-12-12T21:13:20.982Z,99939.80
2018-12-12T21:15:47.133Z,99944.21
2018-12-12T21:18:13.352Z,99939.11
2018-12-12T21:20:39.516Z,99949.11
2018-12-12T21:23:05.674Z,99950.09
2018-12-12T21:25:32.504Z,99946.92
2018-12-12T21:27:58.638Z,99949.59
2018-12-12T21:30:24.769Z,99947.45
2018-12-12T21:32:50.938Z,99943.87
2018-12-12T21:35:17.101Z,99941.13
2018-12-12T21:37:43.248Z,99942.77
2018-12-12T21:40:09.445Z,99938.76
2018-12-12T21:42:35.605Z,99941.96
2018-12-12T21:45:01.774Z,99935.92
2018-12-12T21:47:27.956Z,99946.19
2018-12-12T21:49:54.109Z,99942.87
2018-12-12T21:52:20.260Z,99936.63
2018-12-12T21:54:46.420Z,99936.41
2018-12-12T21:57:12.562Z,99937.72
2018-12-12T21:59:38.713Z,99945.34
2018-12-12T22:02:04.893Z,99943.02
2018-12-12T22:04:37.038Z,99939.36
2018-12-12T22:06:59.209Z,99942.25
2018-12-12T22:09:25.393Z,99941.41
2018-12-12T22:11:51.529Z,99933.91
2018-12-12T22:16:53.991Z,99937.36
2018-12-12T22:19:20.140Z,99935.43
2018-12-12T22:21:46.270Z,99938.55
2018-12-12T22:24:12.450Z,99935.76
2018-12-12T22:26:38.586Z,99939.55
2018-12-12T22:29:04.749Z,99940.02
2018-12-12T22:31:30.909Z,99936.45
2018-12-12T22:33:57.048Z,99935.70
2018-12-12T22:36:23.317Z,99938.94
2018-12-12T22:38:49.602Z,99941.38
2018-12-12T22:41:15.737Z,99936.66
2018-12-12T22:43:41.861Z,99941.28
2018-12-12T22:46:08.032Z,99942.19
2018-12-12T22:48:34.193Z,99944.05
2018-12-12T22:51:00.341Z,99943.92
2018-12-12T22:53:26.501Z,99938.89
2018-12-12T22:55:52.628Z,99943.55
2018-12-12T22:58:18.766Z,99936.70
2018-12-12T23:00:47.850Z,99945.28
2018-12-12T23:03:13.989Z,99944.89
2018-12-12T23:05:40.121Z,99943.78
2018-12-12T23:08:06.285Z,99941.20
2018-12-12T23:10:32.438Z,99947.50
2018-12-12T23:12:58.573Z,99948.33
2018-12-12T23:15:24.985Z,99946.78
2018-12-12T23:17:51.125Z,99942.71
2018-12-12T23:20:17.266Z,99941.24
2018-12-12T23:22:43.429Z,99941.47
2018-12-12T23:25:09.545Z,99942.38
2018-12-12T23:27:35.680Z,99943.84
2018-12-12T23:30:03.209Z,99948.64
2018-12-12T23:32:29.349Z,99943.72
2018-12-12T23:34:55.495Z,99947.30
2018-12-12T23:37:21.673Z,99947.23
2018-12-12T23:39:47.809Z,99948.22
2018-12-12T23:42:13.930Z,99947.56
2018-12-12T23:44:40.133Z,99946.91
2018-12-12T23:47:06.265Z,99940.33
2018-12-12T23:49:32.396Z,99949.27
2018-12-12T23:51:58.573Z,99952.12
2018-12-12T23:54:24.725Z,99949.88
2018-12-12T23:56:50.852Z,99948.59
2018-12-12T23:59:18.032Z,99950.08
